Lake City, Texas
Current Conditions -  °F | °C
As of 3:15 PM on Sunday 21 Dec 2014 (Local Time) from KRBO Reporting Station
Overcast Overcast  
Wind Chill: 62°   Ceiling: 1400
Heat Index: 62°   Visibility: 10mi
Dew Point: 56°   Wind: 3mph
Humidity: 81%   Direction: 70°ENE
Pressure: 29.96"   Gusts: NA
Location:  28.0654°N, 97.7489°W
Report Text: KRBO 212115Z AUTO 07003KT 10SM OVC014 17/14 A2996 RMK AO2 T01670135
Loading
Personal Weather Stations






























Interactive Weather Map New forecast layout! Learn more

10-Day Weather Forecast

Advertisements
Track Severe Weather on mobile